sensor_id;sensor_type;location;lat;lon;timestamp;P1;durP1;ratioP1;P2;durP2;ratioP2
64188;SDS011;50493;50.970;10.082;2022-12-08T00:00:26;16.63;;;7.68;;
64188;SDS011;50493;50.970;10.082;2022-12-08T00:02:52;12.50;;;6.05;;
64188;SDS011;50493;50.970;10.082;2022-12-08T00:05:17;11.38;;;5.75;;
64188;SDS011;50493;50.970;10.082;2022-12-08T00:08:03;14.55;;;6.80;;
64188;SDS011;50493;50.970;10.082;2022-12-08T00:10:47;19.17;;;7.95;;
64188;SDS011;50493;50.970;10.082;2022-12-08T00:13:13;11.27;;;6.10;;
64188;SDS011;50493;50.970;10.082;2022-12-08T00:15:38;11.60;;;5.88;;
64188;SDS011;50493;50.970;10.082;2022-12-08T00:18:04;15.48;;;7.47;;
64188;SDS011;50493;50.970;10.082;2022-12-08T00:20:29;19.10;;;9.18;;
64188;SDS011;50493;50.970;10.082;2022-12-08T00:22:55;12.77;;;6.82;;
64188;SDS011;50493;50.970;10.082;2022-12-08T00:25:22;11.10;;;6.13;;
64188;SDS011;50493;50.970;10.082;2022-12-08T00:27:47;14.40;;;7.55;;
64188;SDS011;50493;50.970;10.082;2022-12-08T00:30:12;15.73;;;8.32;;
64188;SDS011;50493;50.970;10.082;2022-12-08T00:32:38;12.13;;;6.13;;
64188;SDS011;50493;50.970;10.082;2022-12-08T00:35:04;16.83;;;7.85;;
64188;SDS011;50493;50.970;10.082;2022-12-08T00:37:29;16.55;;;9.15;;
64188;SDS011;50493;50.970;10.082;2022-12-08T00:39:55;14.85;;;8.15;;
64188;SDS011;50493;50.970;10.082;2022-12-08T00:42:22;18.65;;;8.90;;
64188;SDS011;50493;50.970;10.082;2022-12-08T00:44:47;20.73;;;11.18;;
64188;SDS011;50493;50.970;10.082;2022-12-08T00:47:13;20.73;;;9.95;;
64188;SDS011;50493;50.970;10.082;2022-12-08T00:49:39;19.10;;;9.27;;
64188;SDS011;50493;50.970;10.082;2022-12-08T00:52:04;18.80;;;8.95;;
64188;SDS011;50493;50.970;10.082;2022-12-08T00:54:30;19.27;;;9.50;;
64188;SDS011;50493;50.970;10.082;2022-12-08T00:56:56;11.20;;;6.25;;
64188;SDS011;50493;50.970;10.082;2022-12-08T00:59:22;16.58;;;9.00;;
64188;SDS011;50493;50.970;10.082;2022-12-08T01:01:48;12.73;;;6.10;;
64188;SDS011;50493;50.970;10.082;2022-12-08T01:04:14;11.73;;;6.32;;
64188;SDS011;50493;50.970;10.082;2022-12-08T01:06:41;17.63;;;8.85;;
64188;SDS011;50493;50.970;10.082;2022-12-08T01:09:07;14.32;;;7.88;;
64188;SDS011;50493;50.970;10.082;2022-12-08T01:11:34;18.13;;;10.10;;
64188;SDS011;50493;50.970;10.082;2022-12-08T01:14:00;13.90;;;6.85;;
64188;SDS011;50493;50.970;10.082;2022-12-08T01:16:28;16.45;;;8.15;;
64188;SDS011;50493;50.970;10.082;2022-12-08T01:18:55;17.90;;;9.25;;
64188;SDS011;50493;50.970;10.082;2022-12-08T01:21:22;11.70;;;6.50;;
64188;SDS011;50493;50.970;10.082;2022-12-08T01:23:47;17.95;;;9.73;;
64188;SDS011;50493;50.970;10.082;2022-12-08T01:26:14;12.05;;;6.78;;
64188;SDS011;50493;50.970;10.082;2022-12-08T01:28:40;17.05;;;8.05;;
64188;SDS011;50493;50.970;10.082;2022-12-08T01:31:09;14.70;;;8.63;;
64188;SDS011;50493;50.970;10.082;2022-12-08T01:33:37;17.63;;;9.93;;
64188;SDS011;50493;50.970;10.082;2022-12-08T01:36:04;11.80;;;7.32;;
64188;SDS011;50493;50.970;10.082;2022-12-08T01:38:30;11.45;;;6.70;;
64188;SDS011;50493;50.970;10.082;2022-12-08T01:40:56;16.15;;;8.48;;
64188;SDS011;50493;50.970;10.082;2022-12-08T01:43:22;13.10;;;7.22;;
64188;SDS011;50493;50.970;10.082;2022-12-08T01:45:48;13.88;;;7.70;;
64188;SDS011;50493;50.970;10.082;2022-12-08T01:48:14;13.32;;;7.38;;
64188;SDS011;50493;50.970;10.082;2022-12-08T01:50:44;11.52;;;7.30;;
64188;SDS011;50493;50.970;10.082;2022-12-08T01:53:13;10.95;;;6.68;;
64188;SDS011;50493;50.970;10.082;2022-12-08T01:55:43;14.57;;;8.38;;
64188;SDS011;50493;50.970;10.082;2022-12-08T01:58:14;14.98;;;7.53;;
64188;SDS011;50493;50.970;10.082;2022-12-08T02:00:42;14.40;;;9.02;;
64188;SDS011;50493;50.970;10.082;2022-12-08T02:03:10;14.30;;;7.57;;
64188;SDS011;50493;50.970;10.082;2022-12-08T02:05:38;13.70;;;8.52;;
64188;SDS011;50493;50.970;10.082;2022-12-08T02:08:07;13.80;;;7.35;;
64188;SDS011;50493;50.970;10.082;2022-12-08T02:10:35;11.40;;;6.38;;
64188;SDS011;50493;50.970;10.082;2022-12-08T02:13:02;12.35;;;6.50;;
64188;SDS011;50493;50.970;10.082;2022-12-08T02:15:31;11.65;;;6.78;;
64188;SDS011;50493;50.970;10.082;2022-12-08T02:18:12;12.43;;;7.60;;
64188;SDS011;50493;50.970;10.082;2022-12-08T02:20:51;15.00;;;7.65;;
64188;SDS011;50493;50.970;10.082;2022-12-08T02:23:26;13.75;;;7.95;;
64188;SDS011;50493;50.970;10.082;2022-12-08T02:26:21;14.30;;;7.45;;
64188;SDS011;50493;50.970;10.082;2022-12-08T02:29:06;15.43;;;8.00;;
64188;SDS011;50493;50.970;10.082;2022-12-08T02:31:51;10.93;;;6.13;;
64188;SDS011;50493;50.970;10.082;2022-12-08T02:34:28;17.80;;;9.13;;
64188;SDS011;50493;50.970;10.082;2022-12-08T02:36:56;16.23;;;8.35;;
64188;SDS011;50493;50.970;10.082;2022-12-08T02:39:34;9.50;;;6.15;;
64188;SDS011;50493;50.970;10.082;2022-12-08T02:42:08;10.50;;;6.38;;
64188;SDS011;50493;50.970;10.082;2022-12-08T02:44:40;11.73;;;6.78;;
64188;SDS011;50493;50.970;10.082;2022-12-08T02:47:10;17.80;;;11.68;;
64188;SDS011;50493;50.970;10.082;2022-12-08T02:49:39;14.32;;;8.38;;
64188;SDS011;50493;50.970;10.082;2022-12-08T02:52:05;16.35;;;9.10;;
64188;SDS011;50493;50.970;10.082;2022-12-08T02:54:32;16.50;;;8.90;;
64188;SDS011;50493;50.970;10.082;2022-12-08T02:57:06;12.45;;;6.78;;
64188;SDS011;50493;50.970;10.082;2022-12-08T02:59:50;14.15;;;8.20;;
64188;SDS011;50493;50.970;10.082;2022-12-08T03:02:34;17.67;;;10.70;;
64188;SDS011;50493;50.970;10.082;2022-12-08T03:05:10;14.15;;;6.85;;
64188;SDS011;50493;50.970;10.082;2022-12-08T03:07:49;14.48;;;7.55;;
64188;SDS011;50493;50.970;10.082;2022-12-08T03:10:21;14.60;;;6.70;;
64188;SDS011;50493;50.970;10.082;2022-12-08T03:12:52;14.32;;;7.00;;
64188;SDS011;50493;50.970;10.082;2022-12-08T03:15:22;14.45;;;7.20;;
64188;SDS011;50493;50.970;10.082;2022-12-08T03:17:49;12.52;;;6.35;;
64188;SDS011;50493;50.970;10.082;2022-12-08T03:20:19;12.43;;;6.53;;
64188;SDS011;50493;50.970;10.082;2022-12-08T03:22:48;12.90;;;6.28;;
64188;SDS011;50493;50.970;10.082;2022-12-08T03:25:16;9.70;;;5.82;;
64188;SDS011;50493;50.970;10.082;2022-12-08T03:27:44;10.60;;;6.15;;
64188;SDS011;50493;50.970;10.082;2022-12-08T03:30:10;10.43;;;5.88;;
64188;SDS011;50493;50.970;10.082;2022-12-08T03:32:38;11.20;;;5.82;;
64188;SDS011;50493;50.970;10.082;2022-12-08T03:35:12;10.95;;;5.82;;
64188;SDS011;50493;50.970;10.082;2022-12-08T03:37:42;13.65;;;6.50;;
64188;SDS011;50493;50.970;10.082;2022-12-08T03:40:09;10.77;;;5.78;;
64188;SDS011;50493;50.970;10.082;2022-12-08T03:42:37;11.93;;;5.78;;
64188;SDS011;50493;50.970;10.082;2022-12-08T03:45:03;10.73;;;5.88;;
64188;SDS011;50493;50.970;10.082;2022-12-08T03:47:29;10.52;;;6.18;;
64188;SDS011;50493;50.970;10.082;2022-12-08T03:49:54;9.68;;;5.60;;
64188;SDS011;50493;50.970;10.082;2022-12-08T03:52:20;10.63;;;6.07;;
64188;SDS011;50493;50.970;10.082;2022-12-08T03:54:47;13.65;;;6.07;;
64188;SDS011;50493;50.970;10.082;2022-12-08T03:57:12;10.90;;;6.03;;
64188;SDS011;50493;50.970;10.082;2022-12-08T03:59:38;11.25;;;6.05;;
64188;SDS011;50493;50.970;10.082;2022-12-08T04:02:03;12.43;;;6.03;;
64188;SDS011;50493;50.970;10.082;2022-12-08T04:04:29;13.43;;;6.65;;
64188;SDS011;50493;50.970;10.082;2022-12-08T04:06:55;13.07;;;6.45;;
64188;SDS011;50493;50.970;10.082;2022-12-08T04:09:20;9.68;;;5.50;;
64188;SDS011;50493;50.970;10.082;2022-12-08T04:11:47;10.20;;;5.53;;
64188;SDS011;50493;50.970;10.082;2022-12-08T04:14:13;10.45;;;5.90;;
64188;SDS011;50493;50.970;10.082;2022-12-08T04:16:39;9.20;;;5.57;;
64188;SDS011;50493;50.970;10.082;2022-12-08T04:19:04;14.23;;;7.55;;
64188;SDS011;50493;50.970;10.082;2022-12-08T04:21:30;15.13;;;8.90;;
64188;SDS011;50493;50.970;10.082;2022-12-08T04:23:56;13.93;;;7.63;;
64188;SDS011;50493;50.970;10.082;2022-12-08T04:26:21;12.18;;;6.43;;
64188;SDS011;50493;50.970;10.082;2022-12-08T04:28:48;11.93;;;6.22;;
64188;SDS011;50493;50.970;10.082;2022-12-08T04:31:13;14.57;;;7.15;;
64188;SDS011;50493;50.970;10.082;2022-12-08T04:33:39;15.45;;;6.97;;
64188;SDS011;50493;50.970;10.082;2022-12-08T04:36:05;11.82;;;6.63;;
64188;SDS011;50493;50.970;10.082;2022-12-08T04:38:31;10.93;;;6.13;;
64188;SDS011;50493;50.970;10.082;2022-12-08T04:40:56;11.60;;;6.43;;
64188;SDS011;50493;50.970;10.082;2022-12-08T04:43:22;12.63;;;7.32;;
64188;SDS011;50493;50.970;10.082;2022-12-08T04:45:49;12.75;;;7.13;;
64188;SDS011;50493;50.970;10.082;2022-12-08T04:48:14;13.70;;;8.27;;
64188;SDS011;50493;50.970;10.082;2022-12-08T04:50:41;21.10;;;12.52;;
64188;SDS011;50493;50.970;10.082;2022-12-08T04:53:08;19.45;;;10.05;;
64188;SDS011;50493;50.970;10.082;2022-12-08T04:55:36;15.48;;;7.85;;
64188;SDS011;50493;50.970;10.082;2022-12-08T04:58:02;11.27;;;6.30;;
64188;SDS011;50493;50.970;10.082;2022-12-08T05:00:28;16.45;;;7.60;;
64188;SDS011;50493;50.970;10.082;2022-12-08T05:02:54;16.13;;;9.43;;
64188;SDS011;50493;50.970;10.082;2022-12-08T05:05:20;18.20;;;9.40;;
64188;SDS011;50493;50.970;10.082;2022-12-08T05:07:45;17.45;;;8.50;;
64188;SDS011;50493;50.970;10.082;2022-12-08T05:10:11;18.08;;;9.57;;
64188;SDS011;50493;50.970;10.082;2022-12-08T05:12:36;15.07;;;8.10;;
64188;SDS011;50493;50.970;10.082;2022-12-08T05:15:02;12.52;;;7.07;;
64188;SDS011;50493;50.970;10.082;2022-12-08T05:17:28;11.20;;;6.47;;
64188;SDS011;50493;50.970;10.082;2022-12-08T05:19:54;14.70;;;8.23;;
64188;SDS011;50493;50.970;10.082;2022-12-08T05:22:20;13.60;;;7.80;;
64188;SDS011;50493;50.970;10.082;2022-12-08T05:24:45;12.27;;;7.43;;
64188;SDS011;50493;50.970;10.082;2022-12-08T05:27:10;13.98;;;8.10;;
64188;SDS011;50493;50.970;10.082;2022-12-08T05:29:36;12.43;;;7.00;;
64188;SDS011;50493;50.970;10.082;2022-12-08T05:32:01;10.77;;;6.57;;
64188;SDS011;50493;50.970;10.082;2022-12-08T05:34:27;22.92;;;10.73;;
64188;SDS011;50493;50.970;10.082;2022-12-08T05:36:54;12.90;;;7.38;;
64188;SDS011;50493;50.970;10.082;2022-12-08T05:39:19;13.18;;;7.43;;
64188;SDS011;50493;50.970;10.082;2022-12-08T05:41:44;12.85;;;6.82;;
64188;SDS011;50493;50.970;10.082;2022-12-08T05:44:10;12.02;;;7.18;;
64188;SDS011;50493;50.970;10.082;2022-12-08T05:46:35;13.55;;;7.05;;
64188;SDS011;50493;50.970;10.082;2022-12-08T05:49:01;13.95;;;7.68;;
64188;SDS011;50493;50.970;10.082;2022-12-08T05:51:28;13.65;;;7.63;;
64188;SDS011;50493;50.970;10.082;2022-12-08T05:53:55;18.08;;;8.68;;
64188;SDS011;50493;50.970;10.082;2022-12-08T05:56:20;16.13;;;8.32;;
64188;SDS011;50493;50.970;10.082;2022-12-08T05:58:47;18.55;;;9.23;;
64188;SDS011;50493;50.970;10.082;2022-12-08T06:01:20;28.75;;;12.95;;
64188;SDS011;50493;50.970;10.082;2022-12-08T06:03:47;25.20;;;11.90;;
64188;SDS011;50493;50.970;10.082;2022-12-08T06:06:12;25.02;;;12.45;;
64188;SDS011;50493;50.970;10.082;2022-12-08T06:08:38;25.40;;;12.20;;
64188;SDS011;50493;50.970;10.082;2022-12-08T06:11:05;22.48;;;10.95;;
64188;SDS011;50493;50.970;10.082;2022-12-08T06:13:30;16.35;;;8.38;;
64188;SDS011;50493;50.970;10.082;2022-12-08T06:15:57;19.50;;;9.48;;
64188;SDS011;50493;50.970;10.082;2022-12-08T06:18:28;21.35;;;9.80;;
64188;SDS011;50493;50.970;10.082;2022-12-08T06:21:00;18.77;;;9.05;;
64188;SDS011;50493;50.970;10.082;2022-12-08T06:23:26;20.58;;;9.20;;
64188;SDS011;50493;50.970;10.082;2022-12-08T06:25:51;20.90;;;9.27;;
64188;SDS011;50493;50.970;10.082;2022-12-08T06:28:18;20.20;;;8.75;;
64188;SDS011;50493;50.970;10.082;2022-12-08T06:30:43;20.05;;;9.55;;
64188;SDS011;50493;50.970;10.082;2022-12-08T06:33:09;25.13;;;10.63;;
64188;SDS011;50493;50.970;10.082;2022-12-08T06:35:35;19.38;;;9.57;;
64188;SDS011;50493;50.970;10.082;2022-12-08T06:38:01;18.33;;;9.18;;
64188;SDS011;50493;50.970;10.082;2022-12-08T06:40:26;17.33;;;8.77;;
64188;SDS011;50493;50.970;10.082;2022-12-08T06:42:52;18.92;;;9.60;;
64188;SDS011;50493;50.970;10.082;2022-12-08T06:45:19;19.25;;;9.75;;
64188;SDS011;50493;50.970;10.082;2022-12-08T06:47:44;21.48;;;8.93;;
64188;SDS011;50493;50.970;10.082;2022-12-08T06:50:10;17.55;;;8.75;;
64188;SDS011;50493;50.970;10.082;2022-12-08T06:52:37;17.35;;;8.98;;
64188;SDS011;50493;50.970;10.082;2022-12-08T06:55:02;19.77;;;9.70;;
64188;SDS011;50493;50.970;10.082;2022-12-08T06:57:28;20.13;;;9.25;;
64188;SDS011;50493;50.970;10.082;2022-12-08T06:59:54;17.10;;;7.72;;
64188;SDS011;50493;50.970;10.082;2022-12-08T07:02:21;11.70;;;5.95;;
64188;SDS011;50493;50.970;10.082;2022-12-08T07:04:46;20.73;;;8.93;;
64188;SDS011;50493;50.970;10.082;2022-12-08T07:07:12;17.80;;;8.35;;
64188;SDS011;50493;50.970;10.082;2022-12-08T07:09:37;17.42;;;8.68;;
64188;SDS011;50493;50.970;10.082;2022-12-08T07:12:03;18.38;;;7.55;;
64188;SDS011;50493;50.970;10.082;2022-12-08T07:14:28;16.23;;;8.35;;
64188;SDS011;50493;50.970;10.082;2022-12-08T07:16:54;17.42;;;8.75;;
64188;SDS011;50493;50.970;10.082;2022-12-08T07:19:20;16.45;;;8.45;;
64188;SDS011;50493;50.970;10.082;2022-12-08T07:21:46;16.05;;;9.13;;
64188;SDS011;50493;50.970;10.082;2022-12-08T07:24:11;17.05;;;9.13;;
64188;SDS011;50493;50.970;10.082;2022-12-08T07:26:37;16.80;;;7.95;;
64188;SDS011;50493;50.970;10.082;2022-12-08T07:29:04;15.30;;;8.05;;
64188;SDS011;50493;50.970;10.082;2022-12-08T07:31:29;16.30;;;7.85;;
64188;SDS011;50493;50.970;10.082;2022-12-08T07:33:55;17.35;;;8.10;;
64188;SDS011;50493;50.970;10.082;2022-12-08T07:36:22;17.95;;;9.20;;
64188;SDS011;50493;50.970;10.082;2022-12-08T07:38:49;15.02;;;7.72;;
64188;SDS011;50493;50.970;10.082;2022-12-08T07:41:16;16.52;;;8.55;;
64188;SDS011;50493;50.970;10.082;2022-12-08T07:43:42;15.27;;;7.95;;
64188;SDS011;50493;50.970;10.082;2022-12-08T07:46:10;16.35;;;7.47;;
64188;SDS011;50493;50.970;10.082;2022-12-08T07:48:35;19.60;;;8.45;;
64188;SDS011;50493;50.970;10.082;2022-12-08T07:51:01;21.83;;;8.73;;
64188;SDS011;50493;50.970;10.082;2022-12-08T07:53:28;17.75;;;8.60;;
64188;SDS011;50493;50.970;10.082;2022-12-08T07:55:54;13.95;;;7.75;;
64188;SDS011;50493;50.970;10.082;2022-12-08T07:58:20;17.63;;;8.18;;
64188;SDS011;50493;50.970;10.082;2022-12-08T08:00:45;19.00;;;9.15;;
64188;SDS011;50493;50.970;10.082;2022-12-08T08:03:10;18.17;;;8.73;;
64188;SDS011;50493;50.970;10.082;2022-12-08T08:05:36;16.58;;;8.05;;
64188;SDS011;50493;50.970;10.082;2022-12-08T08:08:01;16.48;;;8.55;;
64188;SDS011;50493;50.970;10.082;2022-12-08T08:10:29;18.48;;;8.90;;
64188;SDS011;50493;50.970;10.082;2022-12-08T08:12:56;15.48;;;7.90;;
64188;SDS011;50493;50.970;10.082;2022-12-08T08:15:22;15.00;;;7.60;;
64188;SDS011;50493;50.970;10.082;2022-12-08T08:17:48;13.93;;;7.00;;
64188;SDS011;50493;50.970;10.082;2022-12-08T08:20:15;16.27;;;7.43;;
64188;SDS011;50493;50.970;10.082;2022-12-08T08:22:40;13.10;;;6.65;;
64188;SDS011;50493;50.970;10.082;2022-12-08T08:25:06;17.10;;;8.13;;
64188;SDS011;50493;50.970;10.082;2022-12-08T08:27:33;15.57;;;8.05;;
64188;SDS011;50493;50.970;10.082;2022-12-08T08:29:58;16.63;;;7.80;;
64188;SDS011;50493;50.970;10.082;2022-12-08T08:32:24;17.25;;;8.30;;
64188;SDS011;50493;50.970;10.082;2022-12-08T08:34:50;19.20;;;9.32;;
64188;SDS011;50493;50.970;10.082;2022-12-08T08:37:16;22.08;;;9.95;;
64188;SDS011;50493;50.970;10.082;2022-12-08T08:39:41;20.30;;;9.15;;
64188;SDS011;50493;50.970;10.082;2022-12-08T08:42:07;19.58;;;10.63;;
64188;SDS011;50493;50.970;10.082;2022-12-08T08:44:33;17.58;;;9.75;;
64188;SDS011;50493;50.970;10.082;2022-12-08T08:46:59;19.45;;;8.43;;
64188;SDS011;50493;50.970;10.082;2022-12-08T08:49:24;19.35;;;7.93;;
64188;SDS011;50493;50.970;10.082;2022-12-08T08:51:50;18.27;;;8.50;;
64188;SDS011;50493;50.970;10.082;2022-12-08T08:54:15;19.25;;;9.73;;
64188;SDS011;50493;50.970;10.082;2022-12-08T08:56:41;23.02;;;10.35;;
64188;SDS011;50493;50.970;10.082;2022-12-08T08:59:06;21.50;;;9.88;;
64188;SDS011;50493;50.970;10.082;2022-12-08T09:01:33;19.08;;;9.40;;
64188;SDS011;50493;50.970;10.082;2022-12-08T09:03:58;15.77;;;7.18;;
64188;SDS011;50493;50.970;10.082;2022-12-08T09:06:24;21.27;;;9.05;;
64188;SDS011;50493;50.970;10.082;2022-12-08T09:08:49;19.15;;;8.30;;
64188;SDS011;50493;50.970;10.082;2022-12-08T09:11:15;20.50;;;9.23;;
64188;SDS011;50493;50.970;10.082;2022-12-08T09:13:42;16.50;;;7.78;;
64188;SDS011;50493;50.970;10.082;2022-12-08T09:16:08;14.60;;;5.75;;
64188;SDS011;50493;50.970;10.082;2022-12-08T09:18:36;17.85;;;7.07;;
64188;SDS011;50493;50.970;10.082;2022-12-08T09:21:02;16.85;;;7.60;;
64188;SDS011;50493;50.970;10.082;2022-12-08T09:23:28;15.73;;;7.70;;
64188;SDS011;50493;50.970;10.082;2022-12-08T09:25:54;16.42;;;7.72;;
64188;SDS011;50493;50.970;10.082;2022-12-08T09:28:19;14.68;;;7.72;;
64188;SDS011;50493;50.970;10.082;2022-12-08T09:30:45;15.27;;;7.80;;
64188;SDS011;50493;50.970;10.082;2022-12-08T09:33:10;14.68;;;7.85;;
64188;SDS011;50493;50.970;10.082;2022-12-08T09:35:37;16.42;;;7.63;;
64188;SDS011;50493;50.970;10.082;2022-12-08T09:38:02;13.65;;;7.20;;
64188;SDS011;50493;50.970;10.082;2022-12-08T09:40:28;15.85;;;7.30;;
64188;SDS011;50493;50.970;10.082;2022-12-08T09:43:02;14.45;;;7.55;;
64188;SDS011;50493;50.970;10.082;2022-12-08T09:45:32;14.95;;;7.90;;
64188;SDS011;50493;50.970;10.082;2022-12-08T09:47:59;13.90;;;7.03;;
64188;SDS011;50493;50.970;10.082;2022-12-08T09:50:31;11.23;;;5.72;;
64188;SDS011;50493;50.970;10.082;2022-12-08T09:53:04;13.93;;;7.35;;
64188;SDS011;50493;50.970;10.082;2022-12-08T09:55:36;12.60;;;5.60;;
64188;SDS011;50493;50.970;10.082;2022-12-08T09:58:05;14.50;;;8.02;;
64188;SDS011;50493;50.970;10.082;2022-12-08T10:00:39;8.98;;;4.53;;
64188;SDS011;50493;50.970;10.082;2022-12-08T10:03:06;14.90;;;6.25;;
64188;SDS011;50493;50.970;10.082;2022-12-08T10:05:35;13.55;;;7.32;;
64188;SDS011;50493;50.970;10.082;2022-12-08T10:08:07;13.30;;;7.28;;
64188;SDS011;50493;50.970;10.082;2022-12-08T10:10:45;12.60;;;6.53;;
64188;SDS011;50493;50.970;10.082;2022-12-08T10:13:14;11.32;;;5.55;;
64188;SDS011;50493;50.970;10.082;2022-12-08T10:15:46;11.07;;;5.65;;
64188;SDS011;50493;50.970;10.082;2022-12-08T10:18:20;11.52;;;6.47;;
64188;SDS011;50493;50.970;10.082;2022-12-08T10:20:49;11.70;;;6.85;;
64188;SDS011;50493;50.970;10.082;2022-12-08T10:23:22;13.55;;;7.35;;
64188;SDS011;50493;50.970;10.082;2022-12-08T10:25:53;12.20;;;6.70;;
64188;SDS011;50493;50.970;10.082;2022-12-08T10:28:23;15.00;;;6.95;;
64188;SDS011;50493;50.970;10.082;2022-12-08T10:30:48;12.15;;;6.68;;
64188;SDS011;50493;50.970;10.082;2022-12-08T10:33:15;12.05;;;6.38;;
64188;SDS011;50493;50.970;10.082;2022-12-08T10:35:43;12.35;;;6.63;;
64188;SDS011;50493;50.970;10.082;2022-12-08T10:38:15;10.52;;;5.80;;
64188;SDS011;50493;50.970;10.082;2022-12-08T10:40:44;13.05;;;7.00;;
64188;SDS011;50493;50.970;10.082;2022-12-08T10:43:12;12.20;;;6.60;;
64188;SDS011;50493;50.970;10.082;2022-12-08T10:45:41;12.40;;;6.88;;
64188;SDS011;50493;50.970;10.082;2022-12-08T10:48:12;12.63;;;6.70;;
64188;SDS011;50493;50.970;10.082;2022-12-08T10:50:40;12.85;;;6.78;;
64188;SDS011;50493;50.970;10.082;2022-12-08T10:53:10;14.90;;;7.40;;
64188;SDS011;50493;50.970;10.082;2022-12-08T10:55:41;12.60;;;7.10;;
64188;SDS011;50493;50.970;10.082;2022-12-08T10:58:27;13.23;;;6.90;;
64188;SDS011;50493;50.970;10.082;2022-12-08T11:01:00;11.55;;;6.43;;
64188;SDS011;50493;50.970;10.082;2022-12-08T11:03:29;14.48;;;6.95;;
64188;SDS011;50493;50.970;10.082;2022-12-08T11:05:57;12.07;;;5.85;;
64188;SDS011;50493;50.970;10.082;2022-12-08T11:08:24;11.85;;;7.47;;
64188;SDS011;50493;50.970;10.082;2022-12-08T11:10:50;12.20;;;6.20;;
64188;SDS011;50493;50.970;10.082;2022-12-08T11:13:17;10.45;;;5.65;;
64188;SDS011;50493;50.970;10.082;2022-12-08T11:15:47;13.68;;;7.35;;
64188;SDS011;50493;50.970;10.082;2022-12-08T11:18:21;11.80;;;5.72;;
64188;SDS011;50493;50.970;10.082;2022-12-08T11:20:55;9.38;;;4.55;;
64188;SDS011;50493;50.970;10.082;2022-12-08T11:23:23;12.32;;;6.85;;
64188;SDS011;50493;50.970;10.082;2022-12-08T11:25:51;11.63;;;6.78;;
64188;SDS011;50493;50.970;10.082;2022-12-08T11:28:21;11.18;;;4.60;;
64188;SDS011;50493;50.970;10.082;2022-12-08T11:30:51;10.68;;;5.40;;
64188;SDS011;50493;50.970;10.082;2022-12-08T11:33:22;11.77;;;5.72;;
64188;SDS011;50493;50.970;10.082;2022-12-08T11:35:51;13.70;;;7.00;;
64188;SDS011;50493;50.970;10.082;2022-12-08T11:38:21;16.17;;;6.45;;
64188;SDS011;50493;50.970;10.082;2022-12-08T11:40:49;13.60;;;6.88;;
64188;SDS011;50493;50.970;10.082;2022-12-08T11:43:17;13.35;;;6.57;;
64188;SDS011;50493;50.970;10.082;2022-12-08T11:45:47;12.05;;;6.10;;
64188;SDS011;50493;50.970;10.082;2022-12-08T11:48:22;13.32;;;6.00;;
64188;SDS011;50493;50.970;10.082;2022-12-08T11:50:55;12.75;;;6.43;;
64188;SDS011;50493;50.970;10.082;2022-12-08T11:53:26;12.35;;;6.47;;
64188;SDS011;50493;50.970;10.082;2022-12-08T11:55:57;13.82;;;6.60;;
64188;SDS011;50493;50.970;10.082;2022-12-08T11:58:29;13.02;;;7.40;;
64188;SDS011;50493;50.970;10.082;2022-12-08T12:01:03;12.93;;;7.05;;
64188;SDS011;50493;50.970;10.082;2022-12-08T12:03:30;12.50;;;5.93;;
64188;SDS011;50493;50.970;10.082;2022-12-08T12:09:07;11.73;;;5.20;;
64188;SDS011;50493;50.970;10.082;2022-12-08T12:11:41;13.05;;;6.45;;
64188;SDS011;50493;50.970;10.082;2022-12-08T12:14:37;12.48;;;6.20;;
64188;SDS011;50493;50.970;10.082;2022-12-08T12:17:20;13.30;;;6.82;;
64188;SDS011;50493;50.970;10.082;2022-12-08T12:19:55;11.80;;;6.22;;
64188;SDS011;50493;50.970;10.082;2022-12-08T12:22:26;12.95;;;7.25;;
64188;SDS011;50493;50.970;10.082;2022-12-08T12:24:57;17.83;;;8.05;;
64188;SDS011;50493;50.970;10.082;2022-12-08T12:27:23;12.90;;;6.97;;
64188;SDS011;50493;50.970;10.082;2022-12-08T12:29:55;35.17;;;17.13;;
64188;SDS011;50493;50.970;10.082;2022-12-08T12:32:24;15.50;;;7.65;;
64188;SDS011;50493;50.970;10.082;2022-12-08T12:35:03;15.43;;;8.02;;
64188;SDS011;50493;50.970;10.082;2022-12-08T12:37:38;18.77;;;8.98;;
64188;SDS011;50493;50.970;10.082;2022-12-08T12:40:10;13.90;;;7.05;;
64188;SDS011;50493;50.970;10.082;2022-12-08T12:42:42;11.40;;;5.38;;
64188;SDS011;50493;50.970;10.082;2022-12-08T12:45:11;15.00;;;6.57;;
64188;SDS011;50493;50.970;10.082;2022-12-08T12:47:51;13.98;;;6.80;;
64188;SDS011;50493;50.970;10.082;2022-12-08T12:56:06;9.75;;;5.13;;
64188;SDS011;50493;50.970;10.082;2022-12-08T12:58:37;13.45;;;6.88;;
64188;SDS011;50493;50.970;10.082;2022-12-08T13:04:04;13.60;;;6.82;;
64188;SDS011;50493;50.970;10.082;2022-12-08T13:06:32;10.02;;;5.30;;
64188;SDS011;50493;50.970;10.082;2022-12-08T13:09:02;12.55;;;6.20;;
64188;SDS011;50493;50.970;10.082;2022-12-08T13:11:29;14.48;;;7.60;;
64188;SDS011;50493;50.970;10.082;2022-12-08T13:14:12;10.93;;;5.68;;
64188;SDS011;50493;50.970;10.082;2022-12-08T13:16:51;12.65;;;6.72;;
64188;SDS011;50493;50.970;10.082;2022-12-08T13:19:20;10.95;;;5.97;;
64188;SDS011;50493;50.970;10.082;2022-12-08T13:21:46;10.80;;;5.78;;
64188;SDS011;50493;50.970;10.082;2022-12-08T13:24:13;13.75;;;6.97;;
64188;SDS011;50493;50.970;10.082;2022-12-08T13:26:44;12.77;;;4.70;;
64188;SDS011;50493;50.970;10.082;2022-12-08T13:29:17;10.45;;;5.40;;
64188;SDS011;50493;50.970;10.082;2022-12-08T13:31:46;16.30;;;8.18;;
64188;SDS011;50493;50.970;10.082;2022-12-08T13:34:14;13.75;;;7.93;;
64188;SDS011;50493;50.970;10.082;2022-12-08T13:36:48;17.50;;;8.02;;
64188;SDS011;50493;50.970;10.082;2022-12-08T13:39:20;12.32;;;6.22;;
64188;SDS011;50493;50.970;10.082;2022-12-08T13:41:49;11.63;;;5.88;;
64188;SDS011;50493;50.970;10.082;2022-12-08T13:44:21;11.55;;;5.68;;
64188;SDS011;50493;50.970;10.082;2022-12-08T13:46:51;11.52;;;6.78;;
64188;SDS011;50493;50.970;10.082;2022-12-08T13:49:22;9.45;;;5.13;;
64188;SDS011;50493;50.970;10.082;2022-12-08T13:51:53;12.23;;;6.90;;
64188;SDS011;50493;50.970;10.082;2022-12-08T13:54:20;11.52;;;5.72;;
64188;SDS011;50493;50.970;10.082;2022-12-08T13:59:23;8.45;;;5.10;;
64188;SDS011;50493;50.970;10.082;2022-12-08T14:01:52;9.93;;;5.40;;
64188;SDS011;50493;50.970;10.082;2022-12-08T14:04:20;9.95;;;5.25;;
64188;SDS011;50493;50.970;10.082;2022-12-08T14:06:47;11.30;;;6.03;;
64188;SDS011;50493;50.970;10.082;2022-12-08T14:09:16;12.65;;;6.78;;
64188;SDS011;50493;50.970;10.082;2022-12-08T14:14:16;11.05;;;5.60;;
64188;SDS011;50493;50.970;10.082;2022-12-08T14:16:47;9.48;;;5.47;;
64188;SDS011;50493;50.970;10.082;2022-12-08T14:19:16;10.18;;;5.93;;
64188;SDS011;50493;50.970;10.082;2022-12-08T14:21:46;9.80;;;5.38;;
64188;SDS011;50493;50.970;10.082;2022-12-08T14:24:12;9.82;;;5.68;;
64188;SDS011;50493;50.970;10.082;2022-12-08T14:26:39;8.65;;;4.25;;
64188;SDS011;50493;50.970;10.082;2022-12-08T14:29:05;9.05;;;4.75;;
64188;SDS011;50493;50.970;10.082;2022-12-08T14:31:33;10.88;;;5.28;;
64188;SDS011;50493;50.970;10.082;2022-12-08T14:33:58;11.13;;;5.55;;
64188;SDS011;50493;50.970;10.082;2022-12-08T14:36:23;10.38;;;5.95;;
64188;SDS011;50493;50.970;10.082;2022-12-08T14:38:50;11.02;;;5.68;;
64188;SDS011;50493;50.970;10.082;2022-12-08T14:41:23;9.18;;;5.22;;
64188;SDS011;50493;50.970;10.082;2022-12-08T14:43:57;10.65;;;5.60;;